Time;durP1;ratioP1;P1;durP2;ratioP2;P2;SDS_P1;SDS_P2;PMS_P1;PMS_P2;Temp;Humidity;BMP_temperature;BMP_pressure;BME280_temperature;BME280_humidity;BME280_pressure;Samples;Min_cycle;Max_cycle;Signal;HPM_P1;HPM_P2
2023/04/17 00:02:03;;;;;;;13.43;11.63;;;15.30;65.80;;;;;;5005949;28;20361;-51
2023/04/17 00:04:29;;;;;;;13.03;11.63;;;15.30;65.90;;;;;;5008496;28;20240;-51
2023/04/17 00:06:55;;;;;;;12.90;11.13;;;15.30;66.10;;;;;;5010746;28;20202;-48
2023/04/17 00:09:21;;;;;;;13.40;11.60;;;15.20;66.50;;;;;;5011705;28;20276;-48
2023/04/17 00:11:47;;;;;;;12.17;10.97;;;15.20;66.60;;;;;;5011199;28;20197;-48
2023/04/17 00:14:12;;;;;;;12.20;10.90;;;15.10;66.80;;;;;;4996988;28;20198;-50
2023/04/17 00:16:38;;;;;;;12.33;10.80;;;15.10;66.80;;;;;;5007071;28;20485;-48
2023/04/17 00:19:04;;;;;;;12.50;11.20;;;15.10;67.30;;;;;;5008545;28;21802;-52
2023/04/17 00:21:30;;;;;;;14.93;10.90;;;15.10;67.30;;;;;;5007344;28;20232;-52
2023/04/17 00:23:56;;;;;;;11.93;10.70;;;15.10;67.40;;;;;;5006606;28;20610;-52
2023/04/17 00:26:22;;;;;;;13.23;11.80;;;15.10;67.30;;;;;;5007751;28;20451;-52
2023/04/17 00:28:49;;;;;;;12.57;11.30;;;15.10;67.20;;;;;;5009425;28;20452;-53
2023/04/17 00:31:15;;;;;;;12.33;11.07;;;15.10;67.10;;;;;;5006176;28;20743;-52
2023/04/17 00:33:41;;;;;;;12.10;10.80;;;15.10;67.20;;;;;;5010352;28;20817;-52
2023/04/17 00:36:08;;;;;;;14.53;11.27;;;15.10;67.20;;;;;;5011679;28;20445;-52
2023/04/17 00:38:33;;;;;;;13.60;11.13;;;15.10;67.20;;;;;;5002480;28;20198;-49
2023/04/17 00:40:59;;;;;;;13.10;11.80;;;15.10;67.30;;;;;;5012626;28;20543;-49
2023/04/17 00:43:25;;;;;;;11.93;10.73;;;15.10;67.40;;;;;;5005741;28;20198;-52
2023/04/17 00:45:52;;;;;;;12.17;10.87;;;15.10;67.40;;;;;;5005332;28;20209;-53
2023/04/17 00:48:19;;;;;;;13.40;12.00;;;15.10;67.30;;;;;;5005348;28;20245;-53
2023/04/17 00:50:46;;;;;;;11.60;10.40;;;15.10;68.00;;;;;;5009197;28;20441;-53
2023/04/17 00:53:12;;;;;;;13.23;10.93;;;15.10;67.30;;;;;;5011745;28;20473;-52
2023/04/17 00:55:40;;;;;;;13.50;11.20;;;15.00;67.20;;;;;;5006586;28;20953;-52
2023/04/17 00:58:07;;;;;;;12.87;11.50;;;15.00;67.20;;;;;;5006185;28;21284;-53
2023/04/17 01:00:33;;;;;;;14.07;11.00;;;15.00;67.10;;;;;;5005932;28;21006;-53
2023/04/17 01:02:59;;;;;;;13.63;10.90;;;15.00;67.20;;;;;;5006704;28;20579;-53
2023/04/17 01:05:26;;;;;;;12.47;10.93;;;15.00;67.10;;;;;;5002079;28;20440;-52
2023/04/17 01:07:52;;;;;;;16.50;10.73;;;14.90;67.30;;;;;;5001644;28;20186;-52
2023/04/17 01:10:18;;;;;;;13.23;11.83;;;14.90;67.40;;;;;;5004572;28;20444;-49
2023/04/17 01:12:47;;;;;;;12.30;11.07;;;14.90;67.10;;;;;;5010459;28;20440;-53
2023/04/17 01:15:14;;;;;;;13.40;10.73;;;14.90;67.20;;;;;;5006284;28;22685;-52
2023/04/17 01:17:40;;;;;;;13.50;11.43;;;14.90;67.20;;;;;;5000227;28;20496;-52
2023/04/17 01:20:08;;;;;;;12.20;10.93;;;15.00;67.20;;;;;;5004426;28;20527;-52
2023/04/17 01:22:34;;;;;;;12.03;10.83;;;14.90;67.10;;;;;;5004225;28;20253;-53
2023/04/17 01:24:59;;;;;;;13.77;11.80;;;15.00;67.10;;;;;;5000965;28;20809;-49
2023/04/17 01:27:25;;;;;;;17.50;12.27;;;14.90;66.90;;;;;;5005251;28;20202;-48
2023/04/17 01:29:51;;;;;;;12.90;11.60;;;14.90;66.70;;;;;;5002516;28;20763;-51
2023/04/17 01:32:17;;;;;;;12.03;10.77;;;14.90;66.90;;;;;;5010895;28;20534;-52
2023/04/17 01:34:42;;;;;;;13.47;11.90;;;14.90;66.60;;;;;;5005576;28;20201;-52
2023/04/17 01:37:08;;;;;;;14.30;12.23;;;14.90;66.70;;;;;;5007510;28;20209;-48
2023/04/17 01:39:35;;;;;;;12.57;11.27;;;14.90;66.70;;;;;;4997850;28;20198;-53
2023/04/17 01:42:01;;;;;;;12.80;10.90;;;14.90;66.70;;;;;;5008625;28;20234;-51
2023/04/17 01:44:27;;;;;;;14.40;10.93;;;14.80;66.80;;;;;;5003088;28;20451;-49
2023/04/17 01:46:52;;;;;;;13.97;12.47;;;14.80;67.20;;;;;;5011989;28;20205;-48
2023/04/17 01:49:18;;;;;;;14.23;12.00;;;14.90;67.20;;;;;;5009826;28;20201;-52
2023/04/17 01:51:44;;;;;;;13.60;12.20;;;14.90;67.10;;;;;;5006797;28;20229;-52
2023/04/17 01:54:09;;;;;;;12.90;11.60;;;14.90;67.20;;;;;;5005453;28;20317;-53
2023/04/17 01:56:35;;;;;;;13.47;12.07;;;14.90;67.30;;;;;;5012308;28;20630;-49
2023/04/17 01:59:00;;;;;;;16.20;11.53;;;14.90;67.30;;;;;;5012162;28;20201;-51
2023/04/17 02:01:26;;;;;;;12.97;11.57;;;14.90;67.50;;;;;;5007092;28;20950;-51
2023/04/17 02:03:52;;;;;;;13.50;12.20;;;14.90;67.40;;;;;;5013108;28;20658;-52
2023/04/17 02:06:17;;;;;;;13.77;12.13;;;14.90;67.60;;;;;;5011954;28;20240;-53
2023/04/17 02:08:43;;;;;;;13.00;11.10;;;14.90;67.80;;;;;;4999876;28;20206;-48
2023/04/17 02:11:09;;;;;;;13.50;11.63;;;14.80;67.80;;;;;;5012178;28;20205;-51
2023/04/17 02:13:35;;;;;;;14.00;11.47;;;14.70;67.90;;;;;;4996664;28;20201;-50
2023/04/17 02:16:00;;;;;;;14.13;12.63;;;14.60;68.30;;;;;;4992353;28;20202;-48
2023/04/17 02:18:27;;;;;;;13.47;12.10;;;14.50;68.60;;;;;;4992824;28;20426;-49
2023/04/17 02:20:52;;;;;;;12.80;11.60;;;14.40;69.10;;;;;;5011588;28;20198;-49
2023/04/17 02:23:18;;;;;;;14.23;12.73;;;14.50;68.90;;;;;;5008121;28;20550;-49
2023/04/17 02:25:43;;;;;;;14.10;12.40;;;14.40;68.90;;;;;;5007673;28;20252;-48
2023/04/17 02:28:09;;;;;;;15.40;13.30;;;14.40;69.20;;;;;;5009378;28;20230;-52
2023/04/17 02:30:34;;;;;;;12.33;10.97;;;14.40;69.40;;;;;;5002235;28;20201;-48
2023/04/17 02:33:00;;;;;;;13.30;11.57;;;14.50;69.30;;;;;;5006859;28;20222;-49
2023/04/17 02:35:28;;;;;;;19.90;14.33;;;14.40;69.30;;;;;;4999303;28;20720;-48
2023/04/17 02:37:54;;;;;;;13.57;11.50;;;14.40;69.30;;;;;;5007543;28;20273;-50
2023/04/17 02:40:20;;;;;;;13.10;11.80;;;14.40;70.20;;;;;;5003565;28;20529;-54
2023/04/17 02:42:45;;;;;;;19.13;13.63;;;14.40;69.10;;;;;;5006055;28;20228;-48
2023/04/17 02:45:11;;;;;;;14.03;12.53;;;14.40;69.40;;;;;;5008798;28;20653;-47
2023/04/17 02:47:37;;;;;;;14.23;12.30;;;14.40;69.40;;;;;;5007965;28;20186;-48
2023/04/17 02:50:03;;;;;;;14.67;13.17;;;14.40;69.10;;;;;;5003998;28;20621;-51
2023/04/17 02:52:29;;;;;;;13.80;12.40;;;14.20;69.60;;;;;;5007056;28;20718;-51
2023/04/17 02:54:56;;;;;;;20.50;12.57;;;14.10;70.10;;;;;;5006397;28;20520;-52
2023/04/17 02:57:22;;;;;;;14.40;12.23;;;14.10;70.50;;;;;;5010788;28;20444;-50
2023/04/17 02:59:49;;;;;;;21.87;13.00;;;14.20;70.20;;;;;;4994076;28;20473;-49
2023/04/17 03:02:15;;;;;;;15.53;13.73;;;14.20;69.70;;;;;;5002919;28;20500;-48
2023/04/17 03:04:41;;;;;;;14.50;12.37;;;14.30;69.40;;;;;;5004212;28;20448;-50
2023/04/17 03:07:09;;;;;;;14.33;12.67;;;14.40;69.10;;;;;;5019224;28;20457;-50
2023/04/17 03:09:35;;;;;;;14.07;12.53;;;14.50;68.70;;;;;;5001653;28;20539;-48
2023/04/17 03:12:00;;;;;;;13.87;11.77;;;14.50;68.50;;;;;;5001846;28;20886;-48
2023/04/17 03:14:26;;;;;;;13.47;11.83;;;14.50;68.50;;;;;;5003385;28;20935;-48
2023/04/17 03:16:51;;;;;;;14.53;12.53;;;14.40;68.60;;;;;;5002560;28;20274;-53
2023/04/17 03:19:17;;;;;;;14.57;12.23;;;14.40;68.80;;;;;;5007544;28;20224;-48
2023/04/17 03:21:42;;;;;;;14.93;13.03;;;14.50;68.80;;;;;;4997151;28;20285;-50
2023/04/17 03:24:10;;;;;;;12.43;11.13;;;14.50;68.50;;;;;;4996899;28;20256;-51
2023/04/17 03:26:36;;;;;;;15.90;13.40;;;14.50;68.40;;;;;;5002412;28;20202;-48
2023/04/17 03:29:01;;;;;;;15.23;12.27;;;14.50;68.30;;;;;;5001715;28;20498;-51
2023/04/17 03:31:27;;;;;;;16.40;13.03;;;14.50;68.50;;;;;;5006326;28;20205;-48
2023/04/17 03:33:53;;;;;;;17.13;15.33;;;14.50;68.50;;;;;;5001131;28;20199;-48
2023/04/17 03:36:18;;;;;;;14.47;12.97;;;14.60;68.40;;;;;;4996268;28;20281;-51
2023/04/17 03:38:44;;;;;;;16.23;12.97;;;14.60;68.40;;;;;;5007341;28;20205;-49
2023/04/17 03:41:10;;;;;;;15.97;12.43;;;14.50;68.30;;;;;;5007667;28;22270;-50
2023/04/17 03:43:35;;;;;;;14.30;12.80;;;14.50;68.70;;;;;;5008481;28;20575;-48
2023/04/17 03:46:01;;;;;;;13.80;12.40;;;14.40;68.70;;;;;;5001888;28;20501;-48
2023/04/17 03:48:27;;;;;;;15.33;12.80;;;14.50;68.70;;;;;;5005921;28;20582;-49
2023/04/17 03:50:52;;;;;;;17.90;13.80;;;14.50;68.50;;;;;;5002626;28;20898;-48
2023/04/17 03:53:18;;;;;;;15.10;12.10;;;14.50;68.40;;;;;;5004448;28;20708;-49
2023/04/17 03:55:44;;;;;;;15.53;13.00;;;14.50;68.50;;;;;;4998608;28;20202;-50
2023/04/17 03:58:10;;;;;;;14.10;12.40;;;14.50;69.00;;;;;;5006528;28;20186;-48
2023/04/17 04:00:36;;;;;;;16.40;14.43;;;14.50;68.80;;;;;;5001805;28;20445;-49
2023/04/17 04:03:02;;;;;;;16.83;13.47;;;14.50;68.70;;;;;;5004038;28;20221;-53
2023/04/17 04:05:28;;;;;;;17.00;13.30;;;14.50;68.50;;;;;;5000909;28;20186;-53
2023/04/17 04:07:54;;;;;;;16.17;13.40;;;14.50;68.50;;;;;;4992030;28;20451;-49
2023/04/17 04:10:20;;;;;;;15.00;12.70;;;14.60;68.20;;;;;;5002600;28;20198;-53
2023/04/17 04:12:46;;;;;;;16.87;13.23;;;14.60;68.00;;;;;;5002546;28;20203;-52
2023/04/17 04:15:11;;;;;;;14.87;13.27;;;14.60;68.00;;;;;;5002567;28;20437;-53
2023/04/17 04:17:37;;;;;;;18.57;14.20;;;14.60;68.00;;;;;;5008527;28;20194;-53
2023/04/17 04:20:03;;;;;;;16.50;13.80;;;14.50;68.10;;;;;;5004027;28;20298;-53
2023/04/17 04:22:29;;;;;;;15.90;13.23;;;14.50;68.40;;;;;;5010528;28;20315;-54
2023/04/17 04:24:56;;;;;;;15.70;12.80;;;14.40;68.80;;;;;;5003160;28;20470;-53
2023/04/17 04:27:21;;;;;;;15.27;13.30;;;14.40;68.70;;;;;;5010758;28;20198;-53
2023/04/17 04:29:48;;;;;;;15.47;13.87;;;14.40;68.50;;;;;;5009983;28;20902;-54
2023/04/17 04:32:14;;;;;;;15.67;13.47;;;14.40;68.90;;;;;;5007980;28;20209;-53
2023/04/17 04:34:43;;;;;;;18.67;15.43;;;14.40;68.90;;;;;;5011618;28;20524;-53
2023/04/17 04:37:09;;;;;;;18.20;13.83;;;14.50;68.60;;;;;;5010087;28;20461;-52
2023/04/17 04:39:36;;;;;;;16.63;12.80;;;14.50;68.20;;;;;;5010900;28;20457;-52
2023/04/17 04:42:04;;;;;;;15.77;14.03;;;14.50;68.00;;;;;;5008435;28;20695;-52
2023/04/17 04:44:30;;;;;;;16.03;12.93;;;14.60;68.00;;;;;;5008777;28;20445;-52
2023/04/17 04:46:56;;;;;;;17.10;13.60;;;14.50;68.30;;;;;;5009736;28;20516;-51
2023/04/17 04:49:21;;;;;;;17.17;13.40;;;14.50;68.20;;;;;;5010387;28;20537;-53
2023/04/17 04:51:47;;;;;;;15.73;13.30;;;14.50;68.40;;;;;;5003606;28;20547;-50
2023/04/17 04:54:13;;;;;;;17.57;13.57;;;14.50;68.30;;;;;;5009940;28;20252;-49
2023/04/17 04:56:39;;;;;;;16.40;13.33;;;14.50;68.40;;;;;;5011282;28;20198;-50
2023/04/17 04:59:04;;;;;;;15.33;12.90;;;14.50;68.60;;;;;;5009074;28;20616;-52
2023/04/17 05:01:30;;;;;;;18.80;14.00;;;14.50;68.30;;;;;;4998629;28;20590;-53
2023/04/17 05:03:55;;;;;;;19.87;15.23;;;14.50;68.30;;;;;;5003355;28;20197;-52
2023/04/17 05:06:21;;;;;;;18.60;14.17;;;14.50;68.20;;;;;;4999220;28;20332;-51
2023/04/17 05:08:47;;;;;;;15.37;12.77;;;14.50;68.20;;;;;;5005696;28;20285;-53
2023/04/17 05:11:14;;;;;;;13.93;12.43;;;14.50;68.10;;;;;;4996799;28;20901;-52
2023/04/17 05:13:39;;;;;;;16.63;13.67;;;14.50;68.00;;;;;;5007661;28;20336;-50
2023/04/17 05:16:05;;;;;;;15.73;13.20;;;14.50;68.00;;;;;;5010034;28;20528;-50
2023/04/17 05:18:31;;;;;;;16.30;12.93;;;14.50;68.00;;;;;;5005739;28;20200;-53
2023/04/17 05:20:56;;;;;;;16.23;13.90;;;14.60;68.10;;;;;;4999771;28;20249;-53
2023/04/17 05:23:22;;;;;;;15.70;13.40;;;14.60;68.20;;;;;;4996033;28;20568;-53
2023/04/17 05:25:48;;;;;;;14.47;12.57;;;14.60;68.60;;;;;;5001227;28;20339;-50
2023/04/17 05:28:14;;;;;;;14.70;11.60;;;14.70;69.10;;;;;;5003282;28;20644;-52
2023/04/17 05:30:40;;;;;;;15.90;13.53;;;14.90;69.10;;;;;;5005540;28;20445;-51
2023/04/17 05:33:06;;;;;;;18.93;10.70;;;15.00;68.20;;;;;;5009643;28;20440;-50
2023/04/17 05:35:32;;;;;;;15.30;13.17;;;15.10;67.70;;;;;;5004383;28;20436;-48
2023/04/17 05:37:57;;;;;;;15.80;14.20;;;15.10;67.10;;;;;;5001418;28;20651;-52
2023/04/17 05:40:23;;;;;;;14.10;12.50;;;15.10;66.60;;;;;;5008129;28;20341;-52
2023/04/17 05:42:48;;;;;;;15.63;13.10;;;15.10;66.20;;;;;;5004924;28;20603;-52
2023/04/17 05:45:16;;;;;;;14.40;12.37;;;15.00;66.50;;;;;;5004463;28;20205;-49
2023/04/17 05:47:42;;;;;;;14.80;13.30;;;15.00;66.50;;;;;;4993548;28;20186;-51
2023/04/17 05:50:08;;;;;;;15.80;12.43;;;14.90;66.40;;;;;;5003256;28;20448;-51
2023/04/17 05:52:34;;;;;;;18.50;15.47;;;15.00;66.60;;;;;;5003042;28;20197;-52
2023/04/17 05:55:00;;;;;;;17.43;13.90;;;14.90;66.60;;;;;;5000750;28;20238;-51
2023/04/17 05:57:26;;;;;;;15.70;13.57;;;14.90;66.90;;;;;;5010438;28;20467;-52
2023/04/17 05:59:51;;;;;;;15.07;13.40;;;14.90;66.90;;;;;;5008348;28;20205;-52
2023/04/17 06:02:17;;;;;;;16.37;13.30;;;14.90;67.00;;;;;;5005862;28;20225;-53
2023/04/17 06:04:43;;;;;;;14.50;12.10;;;15.00;66.80;;;;;;5010307;28;20689;-52
2023/04/17 06:07:09;;;;;;;14.60;12.20;;;15.00;66.60;;;;;;5010149;28;20202;-53
2023/04/17 06:09:35;;;;;;;16.20;12.07;;;15.00;66.60;;;;;;5010315;28;20456;-52
2023/04/17 06:12:02;;;;;;;14.90;13.30;;;15.00;66.60;;;;;;5011261;28;20453;-53
2023/04/17 06:14:27;;;;;;;16.00;13.17;;;15.00;66.80;;;;;;5008595;28;20451;-52
2023/04/17 06:16:53;;;;;;;16.47;13.30;;;15.00;66.60;;;;;;5008354;28;20900;-50
2023/04/17 06:19:19;;;;;;;17.83;13.80;;;15.10;66.70;;;;;;5009415;28;20255;-50
2023/04/17 06:21:44;;;;;;;16.20;13.00;;;15.10;66.60;;;;;;4998544;28;20229;-53
2023/04/17 06:24:10;;;;;;;15.03;13.20;;;15.10;66.50;;;;;;5005623;28;20606;-52
2023/04/17 06:26:35;;;;;;;14.13;12.63;;;15.10;66.30;;;;;;5001677;28;22079;-53
2023/04/17 06:29:01;;;;;;;14.60;12.00;;;15.10;66.20;;;;;;5005461;28;20695;-54
2023/04/17 06:31:26;;;;;;;14.70;13.10;;;15.10;66.50;;;;;;5005316;28;20735;-52
2023/04/17 06:33:52;;;;;;;16.80;13.60;;;15.10;66.50;;;;;;5003330;28;20641;-49
2023/04/17 06:36:17;;;;;;;14.57;12.53;;;15.00;66.40;;;;;;5006776;28;20693;-52
2023/04/17 06:38:43;;;;;;;14.53;11.97;;;14.90;66.90;;;;;;5000308;28;20190;-53
2023/04/17 06:41:09;;;;;;;15.80;12.77;;;14.90;67.20;;;;;;5006069;28;20208;-51
2023/04/17 06:43:34;;;;;;;15.10;11.60;;;14.90;67.50;;;;;;5009990;28;20281;-52
2023/04/17 06:46:00;;;;;;;14.47;11.80;;;14.80;67.60;;;;;;5011450;28;20564;-52
2023/04/17 06:48:25;;;;;;;13.83;12.30;;;14.80;67.60;;;;;;5010065;28;20205;-54
2023/04/17 06:50:51;;;;;;;17.10;12.20;;;14.80;68.20;;;;;;5008642;28;20200;-51
2023/04/17 06:53:17;;;;;;;11.50;10.33;;;14.80;68.40;;;;;;5005936;28;20233;-52
2023/04/17 06:55:42;;;;;;;14.27;12.87;;;14.90;68.30;;;;;;5008986;28;20232;-50
2023/04/17 06:58:08;;;;;;;13.50;11.47;;;14.90;68.30;;;;;;5010227;28;20198;-48
2023/04/17 07:00:33;;;;;;;13.30;11.90;;;14.90;68.50;;;;;;5010647;28;20244;-49
2023/04/17 07:02:59;;;;;;;14.87;11.77;;;14.90;69.40;;;;;;5003090;28;20233;-51
2023/04/17 07:05:25;;;;;;;14.73;11.40;;;14.90;68.40;;;;;;5008767;28;20217;-52
2023/04/17 07:07:50;;;;;;;13.47;11.13;;;14.90;69.10;;;;;;5007655;28;20204;-47
2023/04/17 07:10:18;;;;;;;14.00;11.40;;;14.90;69.10;;;;;;5006917;28;20641;-47
2023/04/17 07:12:44;;;;;;;12.67;11.17;;;14.90;69.00;;;;;;5008426;28;20202;-50
2023/04/17 07:15:10;;;;;;;13.27;11.60;;;15.00;69.20;;;;;;5008819;28;20536;-49
2023/04/17 07:17:36;;;;;;;14.07;11.40;;;14.90;69.10;;;;;;5006614;28;20445;-55
2023/04/17 07:20:01;;;;;;;12.50;10.90;;;14.90;69.30;;;;;;5008451;28;20437;-50
2023/04/17 07:22:27;;;;;;;13.03;11.63;;;15.00;69.30;;;;;;5009941;28;20233;-47
2023/04/17 07:24:53;;;;;;;13.20;11.40;;;15.10;69.30;;;;;;5006945;28;20712;-47
2023/04/17 07:27:19;;;;;;;12.70;10.90;;;15.10;69.10;;;;;;5010316;28;20201;-48
2023/04/17 07:29:46;;;;;;;14.10;11.40;;;15.00;69.50;;;;;;5007064;28;20200;-51
2023/04/17 07:32:12;;;;;;;11.97;10.70;;;15.00;69.70;;;;;;5007275;28;20190;-51
2023/04/17 07:34:40;;;;;;;11.50;10.10;;;15.10;69.60;;;;;;5006732;28;20477;-52
2023/04/17 07:37:05;;;;;;;13.00;11.00;;;15.10;69.30;;;;;;5009499;28;20450;-49
2023/04/17 07:39:31;;;;;;;11.20;9.63;;;15.10;69.40;;;;;;5005666;28;20446;-50
2023/04/17 07:41:56;;;;;;;12.23;9.67;;;15.10;69.50;;;;;;5000727;28;20224;-50
2023/04/17 07:44:22;;;;;;;13.23;9.70;;;15.10;69.20;;;;;;4998054;28;20186;-51
2023/04/17 07:46:47;;;;;;;14.13;10.27;;;15.10;69.10;;;;;;5001936;28;20740;-48
2023/04/17 07:49:13;;;;;;;10.77;8.90;;;15.10;69.20;;;;;;5006772;28;20601;-49
2023/04/17 07:51:39;;;;;;;11.67;9.33;;;15.20;69.10;;;;;;5003853;28;20288;-52
2023/04/17 07:54:06;;;;;;;13.53;10.00;;;15.10;68.70;;;;;;5011854;28;20237;-49
2023/04/17 07:56:33;;;;;;;10.57;8.33;;;15.20;68.70;;;;;;5012805;28;20449;-52
2023/04/17 07:58:59;;;;;;;9.23;8.40;;;15.20;68.80;;;;;;5007531;28;20919;-48
2023/04/17 08:01:25;;;;;;;11.30;8.40;;;15.20;68.80;;;;;;5008960;28;20480;-49
2023/04/17 08:03:52;;;;;;;10.13;8.90;;;15.20;68.90;;;;;;5010033;28;20518;-49
2023/04/17 08:06:18;;;;;;;9.73;8.33;;;15.30;69.00;;;;;;5008081;28;20467;-51
2023/04/17 08:08:46;;;;;;;8.50;7.60;;;15.30;68.90;;;;;;5004783;28;20445;-52
2023/04/17 08:11:15;;;;;;;9.50;8.37;;;15.40;68.70;;;;;;5012329;28;20260;-51
2023/04/17 08:13:40;;;;;;;9.63;8.63;;;15.40;68.50;;;;;;5012765;28;20527;-49
2023/04/17 08:16:07;;;;;;;8.93;7.70;;;15.40;68.30;;;;;;5007769;28;20440;-49
2023/04/17 08:18:32;;;;;;;7.80;7.00;;;15.40;68.40;;;;;;5011064;28;20276;-50
2023/04/17 08:20:58;;;;;;;8.60;7.80;;;15.50;68.60;;;;;;5012682;28;20535;-48
2023/04/17 08:23:24;;;;;;;8.13;7.23;;;15.50;68.60;;;;;;5003715;28;20220;-52
2023/04/17 08:25:50;;;;;;;7.80;6.87;;;15.60;68.60;;;;;;5004578;28;20244;-49
2023/04/17 08:28:15;;;;;;;7.93;7.23;;;15.70;68.50;;;;;;5005927;28;20452;-47
2023/04/17 08:30:41;;;;;;;7.43;6.50;;;15.80;68.30;;;;;;5000583;28;20194;-47
2023/04/17 08:33:07;;;;;;;6.37;5.53;;;16.00;68.00;;;;;;5007640;28;20229;-50
2023/04/17 08:35:32;;;;;;;6.27;5.67;;;16.10;67.40;;;;;;5006843;28;20190;-50
2023/04/17 08:37:58;;;;;;;6.60;5.93;;;16.10;65.90;;;;;;5008368;28;20232;-48
2023/04/17 08:40:25;;;;;;;6.17;5.57;;;16.10;66.00;;;;;;5003715;28;20195;-48
2023/04/17 08:42:53;;;;;;;6.10;5.50;;;16.20;66.10;;;;;;5011725;28;21033;-50
2023/04/17 08:45:19;;;;;;;5.67;5.10;;;16.30;65.90;;;;;;4998863;28;20445;-49
2023/04/17 08:47:45;;;;;;;5.23;4.80;;;16.40;65.60;;;;;;5008167;28;20785;-49
2023/04/17 08:50:14;;;;;;;6.07;5.47;;;16.40;65.50;;;;;;5008849;28;20444;-50
2023/04/17 08:52:44;;;;;;;5.40;4.90;;;16.50;65.60;;;;;;5011464;28;20456;-49
2023/04/17 08:55:14;;;;;;;6.10;5.23;;;16.40;65.30;;;;;;5010060;28;20476;-51
2023/04/17 08:58:00;;;;;;;5.97;5.20;;;16.30;65.40;;;;;;5005015;28;20524;-51
2023/04/17 09:00:27;;;;;;;5.40;4.83;;;16.20;65.90;;;;;;5007798;28;20455;-49
2023/04/17 09:02:55;;;;;;;6.77;5.77;;;16.20;66.90;;;;;;5005118;28;20551;-47
2023/04/17 09:05:22;;;;;;;7.30;5.47;;;16.10;67.20;;;;;;5009204;28;20445;-47
2023/04/17 09:07:49;;;;;;;6.93;6.23;;;16.20;68.00;;;;;;5010576;28;20443;-49
2023/04/17 09:10:15;;;;;;;7.83;7.03;;;16.30;68.00;;;;;;5001309;28;20441;-50
2023/04/17 09:12:58;;;;;;;7.03;6.33;;;16.10;66.90;;;;;;5006207;28;20503;-50
2023/04/17 09:15:23;;;;;;;7.73;7.03;;;16.10;66.70;;;;;;4996200;28;20194;-50
2023/04/17 09:17:49;;;;;;;7.13;6.43;;;16.10;66.80;;;;;;5004018;28;20992;-51
2023/04/17 09:20:16;;;;;;;7.57;6.47;;;16.20;67.00;;;;;;5004593;28;20634;-51
2023/04/17 09:22:41;;;;;;;8.20;7.40;;;16.30;66.60;;;;;;5007180;28;20232;-51
2023/04/17 09:25:18;;;;;;;8.40;7.07;;;16.30;67.30;;;;;;5001197;28;20437;-52
2023/04/17 09:27:45;;;;;;;9.30;8.00;;;16.40;67.20;;;;;;5001839;28;20219;-50
2023/04/17 09:30:12;;;;;;;7.87;6.97;;;16.30;65.90;;;;;;4998448;28;20445;-51
2023/04/17 09:32:39;;;;;;;8.93;8.07;;;16.40;66.10;;;;;;5003255;28;20806;-50
2023/04/17 09:35:05;;;;;;;7.80;7.10;;;16.40;66.10;;;;;;5010261;28;20520;-49
2023/04/17 09:38:04;;;;;;;8.20;7.40;;;16.30;66.20;;;;;;5006792;28;20449;-53
2023/04/17 09:40:40;;;;;;;7.27;6.57;;;16.40;66.40;;;;;;4988761;28;20465;-51
2023/04/17 09:43:07;;;;;;;6.50;5.90;;;16.30;66.30;;;;;;4999049;28;20540;-51
2023/04/17 09:45:38;;;;;;;8.50;7.27;;;16.50;65.90;;;;;;5000880;28;20441;-48
2023/04/17 09:48:12;;;;;;;7.80;7.10;;;16.50;66.20;;;;;;5008138;28;21016;-48
2023/04/17 09:50:38;;;;;;;7.13;6.43;;;16.50;66.00;;;;;;4997584;28;20449;-50
2023/04/17 09:53:05;;;;;;;6.60;6.00;;;16.50;64.40;;;;;;4991495;28;20454;-48
2023/04/17 09:55:32;;;;;;;6.23;5.63;;;16.30;64.10;;;;;;4999566;28;20441;-48
2023/04/17 09:58:00;;;;;;;6.47;5.87;;;16.10;64.20;;;;;;5000621;28;20453;-48
2023/04/17 10:00:26;;;;;;;7.23;5.60;;;16.30;64.40;;;;;;5007708;28;20444;-52
2023/04/17 10:02:53;;;;;;;6.50;5.67;;;16.30;64.00;;;;;;4997259;28;20484;-53
2023/04/17 10:05:20;;;;;;;6.40;5.80;;;16.20;64.40;;;;;;4997197;28;20197;-50
2023/04/17 10:07:47;;;;;;;6.00;5.50;;;16.20;64.30;;;;;;4998496;28;20448;-51
2023/04/17 10:10:32;;;;;;;6.07;4.90;;;16.20;63.90;;;;;;5000590;28;20456;-51
2023/04/17 10:13:00;;;;;;;6.20;5.60;;;16.20;63.80;;;;;;5000156;28;21154;-54
2023/04/17 10:15:27;;;;;;;5.77;5.13;;;16.30;63.50;;;;;;5001751;28;20479;-50
2023/04/17 10:17:56;;;;;;;6.57;5.60;;;16.30;63.50;;;;;;5000978;28;21017;-52
2023/04/17 10:20:27;;;;;;;5.17;4.67;;;16.40;63.90;;;;;;5001300;28;20952;-52
2023/04/17 10:22:55;;;;;;;4.90;4.47;;;16.50;64.10;;;;;;4999453;28;20524;-50
2023/04/17 10:25:25;;;;;;;5.90;5.40;;;16.60;64.30;;;;;;5003019;28;20472;-49
2023/04/17 10:27:53;;;;;;;6.40;5.33;;;16.60;63.60;;;;;;5008817;28;20944;-50
2023/04/17 10:30:21;;;;;;;5.63;5.03;;;16.60;63.30;;;;;;5006791;28;20473;-50
2023/04/17 10:33:14;;;;;;;4.20;3.90;;;16.50;63.10;;;;;;4999086;28;20968;-49
2023/04/17 10:35:40;;;;;;;5.30;4.53;;;16.50;62.70;;;;;;4997616;28;20441;-50
2023/04/17 10:38:07;;;;;;;5.47;4.70;;;16.60;62.30;;;;;;4994055;28;20428;-50
2023/04/17 10:40:35;;;;;;;5.00;4.50;;;16.50;61.90;;;;;;5004722;28;20273;-51
2023/04/17 10:43:11;;;;;;;5.60;5.10;;;16.60;62.00;;;;;;5008120;28;20489;-49
2023/04/17 10:46:03;;;;;;;5.77;5.17;;;16.80;62.20;;;;;;5000223;28;20494;-50
2023/04/17 10:48:43;;;;;;;6.07;5.47;;;17.00;62.10;;;;;;5001743;28;20449;-49
2023/04/17 10:51:22;;;;;;;5.43;4.93;;;16.90;60.80;;;;;;5001031;28;20477;-52
2023/04/17 10:54:09;;;;;;;6.03;5.43;;;17.00;60.70;;;;;;5006135;28;20535;-48
2023/04/17 10:56:37;;;;;;;5.03;3.90;;;17.20;61.00;;;;;;5000558;28;20459;-49
2023/04/17 10:59:09;;;;;;;4.93;4.53;;;17.20;60.50;;;;;;4997641;28;20449;-51
2023/04/17 11:01:47;;;;;;;5.33;4.83;;;17.30;59.40;;;;;;5008256;28;20484;-48
2023/04/17 11:04:21;;;;;;;6.23;4.87;;;17.30;59.50;;;;;;4999439;28;21139;-49
2023/04/17 11:06:47;;;;;;;5.17;4.67;;;17.20;59.00;;;;;;4999756;28;20445;-49
2023/04/17 11:09:13;;;;;;;4.73;4.33;;;17.10;58.90;;;;;;5009275;28;20529;-49
2023/04/17 11:11:42;;;;;;;5.00;4.17;;;17.10;60.10;;;;;;5008200;28;20555;-49
2023/04/17 11:14:11;;;;;;;4.93;4.43;;;17.20;60.20;;;;;;5005636;28;20445;-49
2023/04/17 11:16:38;;;;;;;5.60;5.10;;;17.10;59.10;;;;;;5004188;28;20964;-50
2023/04/17 11:19:04;;;;;;;5.10;4.63;;;17.10;59.10;;;;;;5009068;28;20452;-51
2023/04/17 11:21:31;;;;;;;4.93;4.53;;;17.20;60.00;;;;;;5005210;28;20538;-49
2023/04/17 11:24:01;;;;;;;4.97;4.57;;;17.30;59.50;;;;;;5005738;28;20459;-50
2023/04/17 11:26:26;;;;;;;5.33;4.90;;;17.40;59.20;;;;;;5004880;28;20445;-49
2023/04/17 11:28:52;;;;;;;6.00;5.50;;;17.50;59.30;;;;;;4996199;28;20464;-51
2023/04/17 11:31:17;;;;;;;5.03;4.63;;;17.70;58.90;;;;;;4997273;28;20197;-50
2023/04/17 11:33:43;;;;;;;5.17;4.70;;;17.90;58.90;;;;;;5004214;28;20189;-53
2023/04/17 11:36:09;;;;;;;5.47;4.97;;;18.00;59.80;;;;;;5002675;28;20197;-49
2023/04/17 11:38:35;;;;;;;5.47;4.97;;;17.90;58.90;;;;;;5002742;28;20198;-50
2023/04/17 11:41:01;;;;;;;5.27;4.87;;;18.00;59.20;;;;;;5005607;28;20579;-52
2023/04/17 11:43:35;;;;;;;5.20;4.80;;;17.90;59.60;;;;;;5003998;28;20685;-49
2023/04/17 11:46:01;;;;;;;8.20;5.47;;;17.60;58.70;;;;;;5007848;28;20452;-53
2023/04/17 11:48:29;;;;;;;5.40;5.00;;;17.40;58.60;;;;;;5004352;28;20447;-52
2023/04/17 11:50:56;;;;;;;5.63;5.13;;;17.20;58.90;;;;;;5002172;28;20448;-52
2023/04/17 11:53:22;;;;;;;5.70;5.07;;;17.20;59.20;;;;;;5001836;28;20486;-49
2023/04/17 11:56:08;;;;;;;6.23;5.63;;;17.40;59.10;;;;;;5003496;28;20829;-51
2023/04/17 11:58:46;;;;;;;5.30;4.80;;;17.30;57.80;;;;;;5001311;28;20951;-47
2023/04/17 12:01:12;;;;;;;5.37;4.80;;;16.80;57.80;;;;;;5002894;28;20451;-51
2023/04/17 12:03:38;;;;;;;5.43;4.97;;;16.70;59.30;;;;;;5003910;28;20433;-50
2023/04/17 12:06:05;;;;;;;6.50;5.40;;;16.80;59.70;;;;;;5007512;28;20259;-50
2023/04/17 12:08:48;;;;;;;7.13;5.47;;;16.80;59.70;;;;;;4995680;28;20208;-48
2023/04/17 12:11:44;;;;;;;6.20;5.70;;;16.90;59.80;;;;;;5008011;28;20793;-52
2023/04/17 12:14:10;;;;;;;6.53;6.00;;;16.80;60.00;;;;;;4991016;28;20560;-53
2023/04/17 12:16:36;;;;;;;5.93;5.43;;;16.80;61.00;;;;;;5001070;28;20480;-52
2023/04/17 12:19:02;;;;;;;6.00;5.40;;;16.80;61.60;;;;;;5003976;28;20484;-51
2023/04/17 12:21:28;;;;;;;6.43;5.80;;;17.00;61.90;;;;;;4993977;28;20229;-52
2023/04/17 12:23:53;;;;;;;5.93;5.43;;;17.00;61.80;;;;;;4995592;28;20923;-52
2023/04/17 12:26:19;;;;;;;6.70;6.10;;;17.10;62.50;;;;;;4997853;28;20610;-52
2023/04/17 12:28:44;;;;;;;6.13;5.53;;;17.30;61.90;;;;;;4997956;28;20198;-52
2023/04/17 12:31:10;;;;;;;6.90;6.37;;;17.30;60.20;;;;;;4997077;28;20312;-52
2023/04/17 12:33:35;;;;;;;6.53;5.93;;;17.30;60.00;;;;;;5006550;28;20198;-53